Time;durP1;ratioP1;P1;durP2;ratioP2;P2;SDS_P1;SDS_P2;PMS_P1;PMS_P2;Temp;Humidity;BMP_temperature;BMP_pressure;BME280_temperature;BME280_humidity;BME280_pressure;Samples;Min_cycle;Max_cycle;Signal;HPM_P1;HPM_P2
2021/05/03 00:01:20;;;;;;;3.35;1.50;;;;;;;;;;6250306;28;20076;-71
2021/05/03 00:04:22;;;;;;;2.80;1.55;;;;;;;;;;6251533;28;20127;-71
2021/05/03 00:07:23;;;;;;;2.67;1.40;;;;;;;;;;6247723;28;20568;-71
2021/05/03 00:10:25;;;;;;;2.05;1.20;;;;;;;;;;6242765;28;21082;-71
2021/05/03 00:13:26;;;;;;;1.42;1.10;;;;;;;;;;6247915;28;20071;-70
2021/05/03 00:16:27;;;;;;;1.52;1.23;;;;;;;;;;6248420;28;20056;-71
2021/05/03 00:19:29;;;;;;;1.67;1.10;;;;;;;;;;6250473;28;20049;-71
2021/05/03 00:22:30;;;;;;;2.65;1.20;;;;;;;;;;6252977;28;20076;-71
2021/05/03 00:25:31;;;;;;;1.48;1.20;;;;;;;;;;6248157;28;20049;-71
2021/05/03 00:28:32;;;;;;;3.28;1.23;;;;;;;;;;6257389;28;20075;-71
2021/05/03 00:31:33;;;;;;;1.83;1.17;;;;;;;;;;6257387;28;20140;-71
2021/05/03 00:34:35;;;;;;;1.63;1.08;;;;;;;;;;6265036;28;20079;-71
2021/05/03 00:37:36;;;;;;;2.10;1.05;;;;;;;;;;6260333;28;20576;-70
2021/05/03 00:40:38;;;;;;;2.00;1.10;;;;;;;;;;6262059;28;20053;-72
2021/05/03 00:43:39;;;;;;;1.65;0.95;;;;;;;;;;6260175;28;20132;-70
2021/05/03 00:46:40;;;;;;;2.03;0.80;;;;;;;;;;6264030;28;20087;-71
2021/05/03 00:49:42;;;;;;;3.17;0.88;;;;;;;;;;6262951;28;20128;-73
2021/05/03 00:52:43;;;;;;;4.35;1.08;;;;;;;;;;6262352;28;20045;-71
2021/05/03 00:55:45;;;;;;;1.58;0.93;;;;;;;;;;6260361;28;20132;-71
2021/05/03 00:58:46;;;;;;;2.45;0.60;;;;;;;;;;6262806;28;20175;-72
2021/05/03 01:01:47;;;;;;;0.90;0.70;;;;;;;;;;6257984;28;20029;-71
2021/05/03 01:04:49;;;;;;;4.53;0.70;;;;;;;;;;6269459;22;20036;-70
2021/05/03 01:07:50;;;;;;;1.50;0.80;;;;;;;;;;6268221;28;20152;-71
2021/05/03 01:10:51;;;;;;;2.05;0.80;;;;;;;;;;6271174;28;20488;-71
2021/05/03 01:13:52;;;;;;;1.15;0.77;;;;;;;;;;6272170;28;20048;-70
2021/05/03 01:16:53;;;;;;;1.75;0.90;;;;;;;;;;6272851;28;20055;-71
2021/05/03 01:19:55;;;;;;;1.42;0.65;;;;;;;;;;6273465;28;20166;-69
2021/05/03 01:22:58;;;;;;;0.68;0.60;;;;;;;;;;6265347;28;20466;-71
2021/05/03 01:26:00;;;;;;;1.23;0.90;;;;;;;;;;6270855;28;20373;-71
2021/05/03 01:29:01;;;;;;;1.02;0.70;;;;;;;;;;6271235;28;20408;-72
2021/05/03 01:32:02;;;;;;;1.50;0.90;;;;;;;;;;6272725;28;20474;-72
2021/05/03 01:35:03;;;;;;;1.48;0.80;;;;;;;;;;6257379;28;20083;-71
2021/05/03 01:38:07;;;;;;;1.45;0.90;;;;;;;;;;6267265;28;20045;-71
2021/05/03 01:41:08;;;;;;;1.97;0.70;;;;;;;;;;6260234;28;20052;-70
2021/05/03 01:44:12;;;;;;;1.60;0.90;;;;;;;;;;6255859;28;20152;-70
2021/05/03 01:47:13;;;;;;;;;;;;;;;;;;6260746;28;20048;-72
2021/05/03 01:50:15;;;;;;;1.10;0.80;;;;;;;;;;6267037;28;20662;-72
2021/05/03 01:53:17;;;;;;;2.35;0.90;;;;;;;;;;6277615;28;20068;-71
2021/05/03 01:56:18;;;;;;;1.48;0.98;;;;;;;;;;6268939;28;20045;-71
2021/05/03 01:59:19;;;;;;;2.63;1.05;;;;;;;;;;6272461;28;20068;-71
2021/05/03 02:02:21;;;;;;;1.98;1.30;;;;;;;;;;6251643;28;20053;-71
2021/05/03 02:05:23;;;;;;;1.55;0.95;;;;;;;;;;6263607;28;20041;-71
2021/05/03 02:08:25;;;;;;;1.88;1.00;;;;;;;;;;6275092;28;20127;-70
2021/05/03 02:11:26;;;;;;;4.47;1.40;;;;;;;;;;6269990;28;20136;-70
2021/05/03 02:14:27;;;;;;;2.78;1.30;;;;;;;;;;6269602;28;20040;-70
2021/05/03 02:17:28;;;;;;;2.05;1.27;;;;;;;;;;6265889;28;20128;-71
2021/05/03 02:20:29;;;;;;;4.95;1.38;;;;;;;;;;6279614;28;20067;-70
2021/05/03 02:23:31;;;;;;;2.95;1.73;;;;;;;;;;6267633;28;20435;-70
2021/05/03 02:26:32;;;;;;;3.10;1.70;;;;;;;;;;6263966;28;20139;-70
2021/05/03 02:29:33;;;;;;;4.80;1.50;;;;;;;;;;6273176;28;20051;-71
2021/05/03 02:32:35;;;;;;;2.28;1.65;;;;;;;;;;6276963;28;20052;-72
2021/05/03 02:35:36;;;;;;;2.78;1.77;;;;;;;;;;6272467;28;20052;-73
2021/05/03 02:38:38;;;;;;;3.85;1.63;;;;;;;;;;6269645;28;20072;-71
2021/05/03 02:41:39;;;;;;;2.20;1.42;;;;;;;;;;6269652;28;20068;-70
2021/05/03 02:44:41;;;;;;;3.08;1.40;;;;;;;;;;6278561;28;20480;-71
2021/05/03 02:47:42;;;;;;;3.17;1.50;;;;;;;;;;6266087;28;20132;-72
2021/05/03 02:50:43;;;;;;;2.20;1.80;;;;;;;;;;6269306;28;20544;-71
2021/05/03 02:53:45;;;;;;;3.20;1.80;;;;;;;;;;6261200;28;20799;-71
2021/05/03 02:56:46;;;;;;;8.05;1.80;;;;;;;;;;6269768;28;20128;-71
2021/05/03 02:59:47;;;;;;;6.85;2.22;;;;;;;;;;6264345;28;20051;-72
2021/05/03 03:02:48;;;;;;;3.80;1.77;;;;;;;;;;6270118;28;20406;-71
2021/05/03 03:05:49;;;;;;;2.65;1.30;;;;;;;;;;6268837;28;20062;-71
2021/05/03 03:08:51;;;;;;;2.33;1.50;;;;;;;;;;6261581;28;20499;-71
2021/05/03 03:11:52;;;;;;;3.10;1.40;;;;;;;;;;6254553;28;20124;-71
2021/05/03 03:14:53;;;;;;;3.95;1.40;;;;;;;;;;6265179;28;20045;-71
2021/05/03 03:17:54;;;;;;;2.65;1.65;;;;;;;;;;6252316;28;20147;-71
2021/05/03 03:20:55;;;;;;;2.40;1.50;;;;;;;;;;6258329;28;20098;-70
2021/05/03 03:23:57;;;;;;;2.33;1.67;;;;;;;;;;6258575;28;20057;-71
2021/05/03 03:26:58;;;;;;;3.95;1.90;;;;;;;;;;6260705;28;20399;-71
2021/05/03 03:30:00;;;;;;;4.82;1.88;;;;;;;;;;6260059;28;20049;-71
2021/05/03 03:33:01;;;;;;;2.63;1.77;;;;;;;;;;6255660;28;20589;-71
2021/05/03 03:36:02;;;;;;;2.70;2.03;;;;;;;;;;6259141;28;20072;-71
2021/05/03 03:39:06;;;;;;;2.70;2.13;;;;;;;;;;6261523;28;20168;-71
2021/05/03 03:42:07;;;;;;;2.80;2.17;;;;;;;;;;6262827;28;20492;-71
2021/05/03 03:45:10;;;;;;;2.60;2.00;;;;;;;;;;6267079;28;20151;-71
2021/05/03 03:48:11;;;;;;;5.85;2.50;;;;;;;;;;6260943;28;20543;-71
2021/05/03 03:51:12;;;;;;;4.57;2.60;;;;;;;;;;6260505;28;20047;-72
2021/05/03 03:54:14;;;;;;;4.10;2.60;;;;;;;;;;6256085;28;20103;-71
2021/05/03 03:57:15;;;;;;;4.80;2.30;;;;;;;;;;6254796;28;20132;-71
2021/05/03 04:00:17;;;;;;;3.47;2.63;;;;;;;;;;6260458;28;20575;-71
2021/05/03 04:03:22;;;;;;;4.00;2.45;;;;;;;;;;6252668;28;20416;-71
2021/05/03 04:06:36;;;;;;;4.43;2.17;;;;;;;;;;6261012;28;20060;-71
2021/05/03 04:09:42;;;;;;;3.10;2.20;;;;;;;;;;6261193;28;20098;-71
2021/05/03 04:12:58;;;;;;;2.95;2.22;;;;;;;;;;6260655;28;20045;-72
2021/05/03 04:23:09;;;;;;;2.30;1.73;;;;;;;;;;6195027;28;20050;-72
2021/05/03 04:26:12;;;;;;;2.80;1.90;;;;;;;;;;6258449;28;20115;-72
2021/05/03 04:29:13;;;;;;;3.28;2.00;;;;;;;;;;6255024;28;20104;-71
2021/05/03 04:32:14;;;;;;;4.68;2.10;;;;;;;;;;6268813;28;20130;-71
2021/05/03 04:35:15;;;;;;;2.63;2.40;;;;;;;;;;6261884;28;20755;-71
2021/05/03 04:38:16;;;;;;;4.70;2.10;;;;;;;;;;6267930;28;20560;-72
2021/05/03 04:41:18;;;;;;;2.85;2.17;;;;;;;;;;6273913;28;20037;-72
2021/05/03 04:44:19;;;;;;;3.05;2.10;;;;;;;;;;6264246;28;20461;-71
2021/05/03 04:47:20;;;;;;;5.88;2.20;;;;;;;;;;6259302;28;20726;-72
2021/05/03 04:50:21;;;;;;;3.65;1.88;;;;;;;;;;6265501;28;20045;-72
2021/05/03 04:53:23;;;;;;;2.55;1.67;;;;;;;;;;6267675;28;20407;-72
2021/05/03 04:56:25;;;;;;;3.15;1.80;;;;;;;;;;6260515;28;20500;-72
2021/05/03 04:59:26;;;;;;;2.08;1.35;;;;;;;;;;6259030;28;20048;-72
2021/05/03 05:02:27;;;;;;;1.88;1.20;;;;;;;;;;6266760;28;20733;-72
2021/05/03 05:05:28;;;;;;;2.55;1.70;;;;;;;;;;6257483;28;20427;-72
2021/05/03 05:08:29;;;;;;;3.38;1.50;;;;;;;;;;6261723;28;20090;-71
2021/05/03 05:11:32;;;;;;;2.72;1.48;;;;;;;;;;6260737;28;20132;-71
2021/05/03 05:14:33;;;;;;;1.80;1.17;;;;;;;;;;6259417;28;20135;-71
2021/05/03 05:17:36;;;;;;;2.88;1.20;;;;;;;;;;6255599;28;20128;-72
2021/05/03 05:20:37;;;;;;;2.13;0.85;;;;;;;;;;6252034;28;20052;-72
2021/05/03 05:23:38;;;;;;;2.35;1.15;;;;;;;;;;6267357;28;20131;-71
2021/05/03 05:26:41;;;;;;;2.65;1.30;;;;;;;;;;6257048;28;20123;-72
2021/05/03 05:29:42;;;;;;;1.75;1.10;;;;;;;;;;6262034;28;20544;-70
2021/05/03 05:32:43;;;;;;;2.13;1.30;;;;;;;;;;6254848;28;20060;-71
2021/05/03 05:35:44;;;;;;;2.80;1.08;;;;;;;;;;6256613;28;20187;-73
2021/05/03 05:38:45;;;;;;;1.38;1.13;;;;;;;;;;6264208;28;20064;-70
2021/05/03 05:41:47;;;;;;;1.67;1.00;;;;;;;;;;6256113;28;20057;-73
2021/05/03 05:44:48;;;;;;;1.83;1.20;;;;;;;;;;6261190;28;20041;-72
2021/05/03 05:47:49;;;;;;;2.15;1.00;;;;;;;;;;6252329;28;20107;-73
2021/05/03 05:50:50;;;;;;;1.48;1.15;;;;;;;;;;6259802;28;20132;-72
2021/05/03 05:53:51;;;;;;;6.20;1.17;;;;;;;;;;6259364;28;20541;-72
2021/05/03 05:56:54;;;;;;;3.10;1.00;;;;;;;;;;6257816;28;20465;-71
2021/05/03 05:59:55;;;;;;;2.42;1.23;;;;;;;;;;6251385;28;20111;-71
2021/05/03 06:02:56;;;;;;;1.90;1.15;;;;;;;;;;6261185;28;20159;-73
2021/05/03 06:05:57;;;;;;;1.50;1.10;;;;;;;;;;6255222;28;20048;-71
2021/05/03 06:08:59;;;;;;;1.90;1.20;;;;;;;;;;6264636;28;20095;-71
2021/05/03 06:12:01;;;;;;;1.92;1.00;;;;;;;;;;6263785;28;20107;-71
2021/05/03 06:15:02;;;;;;;3.78;1.13;;;;;;;;;;6256401;28;20143;-70
2021/05/03 06:18:05;;;;;;;3.95;1.00;;;;;;;;;;6258090;28;20033;-72
2021/05/03 06:21:07;;;;;;;9.50;1.80;;;;;;;;;;6263483;28;20745;-71
2021/05/03 06:24:09;;;;;;;3.22;1.38;;;;;;;;;;6265483;28;20060;-72
2021/05/03 06:27:11;;;;;;;3.20;1.38;;;;;;;;;;6261888;28;20130;-72
2021/05/03 06:30:12;;;;;;;5.18;1.50;;;;;;;;;;6257510;28;20045;-70
2021/05/03 06:33:13;;;;;;;4.20;1.33;;;;;;;;;;6259647;28;20140;-71
2021/05/03 06:36:15;;;;;;;3.85;1.60;;;;;;;;;;6258345;28;20134;-71
2021/05/03 06:39:16;;;;;;;2.80;1.20;;;;;;;;;;6253093;28;20090;-72
2021/05/03 06:42:17;;;;;;;1.90;0.80;;;;;;;;;;6256884;28;20124;-71
2021/05/03 06:45:21;;;;;;;1.90;0.90;;;;;;;;;;6252933;28;20127;-72
2021/05/03 06:48:22;;;;;;;4.73;1.10;;;;;;;;;;6249608;28;20572;-70
2021/05/03 06:51:23;;;;;;;3.53;1.00;;;;;;;;;;6256124;28;20463;-69
2021/05/03 06:54:24;;;;;;;2.58;0.98;;;;;;;;;;6247758;28;20044;-73
2021/05/03 06:57:26;;;;;;;6.07;1.13;;;;;;;;;;6260763;28;20053;-75
2021/05/03 07:00:27;;;;;;;2.17;0.90;;;;;;;;;;6262520;28;20476;-74
2021/05/03 07:03:28;;;;;;;2.40;0.80;;;;;;;;;;6255280;28;20500;-73
2021/05/03 07:06:29;;;;;;;1.27;0.90;;;;;;;;;;6253614;28;20198;-73
2021/05/03 07:09:31;;;;;;;1.77;1.08;;;;;;;;;;6256711;28;20067;-73
2021/05/03 07:12:36;;;;;;;4.45;1.08;;;;;;;;;;6253942;28;20131;-75
2021/05/03 07:15:37;;;;;;;1.52;0.70;;;;;;;;;;6258604;28;20383;-72
2021/05/03 07:18:39;;;;;;;2.03;1.08;;;;;;;;;;6263024;28;20071;-73
2021/05/03 07:21:40;;;;;;;2.50;0.80;;;;;;;;;;6262331;28;20068;-72
2021/05/03 07:24:42;;;;;;;1.63;0.90;;;;;;;;;;6255243;28;20063;-73
2021/05/03 07:27:44;;;;;;;3.47;1.02;;;;;;;;;;6253588;28;20187;-73
2021/05/03 07:30:45;;;;;;;1.45;0.95;;;;;;;;;;6254967;28;20063;-72
2021/05/03 07:33:46;;;;;;;5.25;1.25;;;;;;;;;;6256220;28;20073;-72
2021/05/03 07:36:47;;;;;;;0.93;0.60;;;;;;;;;;6251576;28;20061;-73
2021/05/03 07:39:48;;;;;;;4.72;1.00;;;;;;;;;;6253914;28;20059;-71
2021/05/03 07:42:50;;;;;;;1.52;0.98;;;;;;;;;;6253518;28;20045;-72
2021/05/03 07:45:51;;;;;;;1.67;0.90;;;;;;;;;;6262347;28;20051;-72
2021/05/03 07:48:53;;;;;;;2.40;1.20;;;;;;;;;;6257682;28;20045;-71
2021/05/03 07:51:54;;;;;;;0.90;0.73;;;;;;;;;;6260660;28;20045;-72
2021/05/03 07:54:55;;;;;;;1.20;0.82;;;;;;;;;;6262261;28;20102;-71
2021/05/03 07:57:59;;;;;;;4.32;1.10;;;;;;;;;;6261208;28;20047;-73
2021/05/03 08:01:00;;;;;;;4.35;1.17;;;;;;;;;;6261118;28;20761;-72
2021/05/03 08:04:01;;;;;;;0.98;0.80;;;;;;;;;;6260875;28;20480;-73
2021/05/03 08:07:02;;;;;;;2.00;1.10;;;;;;;;;;6261553;28;20041;-73
2021/05/03 08:10:04;;;;;;;3.85;0.90;;;;;;;;;;6263881;28;20044;-71
2021/05/03 08:13:06;;;;;;;3.28;0.90;;;;;;;;;;6264711;28;20527;-72
2021/05/03 08:16:10;;;;;;;2.03;1.13;;;;;;;;;;6261586;28;20551;-72
2021/05/03 08:19:12;;;;;;;1.58;0.80;;;;;;;;;;6256417;28;20049;-72
2021/05/03 08:22:14;;;;;;;2.13;0.85;;;;;;;;;;6263855;28;20095;-72
2021/05/03 08:25:15;;;;;;;1.50;0.90;;;;;;;;;;6264163;28;20041;-71
2021/05/03 08:28:18;;;;;;;4.22;1.30;;;;;;;;;;6255906;28;20049;-72
2021/05/03 08:31:19;;;;;;;2.38;1.10;;;;;;;;;;6258637;28;20041;-74
2021/05/03 08:34:20;;;;;;;1.25;0.90;;;;;;;;;;6258712;28;20053;-71
2021/05/03 08:37:22;;;;;;;1.67;1.13;;;;;;;;;;6266371;28;20049;-71
2021/05/03 08:40:23;;;;;;;1.33;1.00;;;;;;;;;;6262843;28;20041;-71
2021/05/03 08:43:27;;;;;;;2.25;1.10;;;;;;;;;;6272833;28;21424;-73
2021/05/03 08:46:30;;;;;;;2.15;1.25;;;;;;;;;;6261083;28;20048;-73
2021/05/03 08:49:36;;;;;;;3.85;1.15;;;;;;;;;;6257209;28;20393;-71
2021/05/03 08:52:42;;;;;;;1.88;1.25;;;;;;;;;;6261508;28;20480;-72
2021/05/03 08:55:44;;;;;;;1.20;1.00;;;;;;;;;;6256500;28;20511;-70
2021/05/03 08:58:46;;;;;;;3.45;1.48;;;;;;;;;;6262188;28;20490;-72
2021/05/03 09:01:49;;;;;;;2.80;1.10;;;;;;;;;;6255996;28;20566;-71
2021/05/03 09:04:50;;;;;;;2.03;1.30;;;;;;;;;;6256334;28;20063;-72
2021/05/03 09:07:52;;;;;;;3.53;1.27;;;;;;;;;;6257490;28;20071;-73
2021/05/03 09:10:55;;;;;;;2.50;1.30;;;;;;;;;;6258642;28;20103;-71
2021/05/03 09:14:08;;;;;;;2.97;1.65;;;;;;;;;;6252791;28;20077;-73
2021/05/03 09:17:21;;;;;;;9.83;2.50;;;;;;;;;;6257093;28;20492;-73
2021/05/03 09:20:25;;;;;;;6.88;1.90;;;;;;;;;;6260170;28;20489;-72
2021/05/03 09:23:25;;;;;;;;;;;;;;;;;;6254682;28;22178;-72
2021/05/03 09:26:35;;;;;;;2.40;1.42;;;;;;;;;;6252307;28;19928;-73
2021/05/03 09:29:39;;;;;;;4.15;1.65;;;;;;;;;;6254913;28;20064;-72
2021/05/03 09:32:40;;;;;;;4.85;1.63;;;;;;;;;;6259696;28;20044;-73
2021/05/03 09:35:43;;;;;;;4.18;1.55;;;;;;;;;;6256675;28;20049;-72
2021/05/03 09:38:45;;;;;;;4.10;1.63;;;;;;;;;;6256983;28;21114;-72
2021/05/03 09:41:48;;;;;;;5.93;1.80;;;;;;;;;;6253784;28;20053;-71
2021/05/03 09:45:06;;;;;;;4.68;1.73;;;;;;;;;;6251661;28;20140;-72
2021/05/03 09:48:09;;;;;;;3.05;1.67;;;;;;;;;;6258010;28;20060;-71
2021/05/03 09:51:29;;;;;;;5.57;2.00;;;;;;;;;;6263947;28;20037;-71
2021/05/03 09:54:31;;;;;;;4.72;2.00;;;;;;;;;;6262811;28;20037;-71
2021/05/03 09:57:32;;;;;;;5.05;1.88;;;;;;;;;;6256005;28;20115;-74
2021/05/03 10:00:36;;;;;;;3.25;1.70;;;;;;;;;;6256072;28;20045;-70
2021/05/03 10:03:42;;;;;;;4.85;1.75;;;;;;;;;;6256032;28;20057;-70
2021/05/03 10:06:43;;;;;;;4.90;1.70;;;;;;;;;;6257519;28;20415;-72
2021/05/03 10:09:48;;;;;;;7.97;2.17;;;;;;;;;;6256181;28;20499;-73
2021/05/03 10:12:49;;;;;;;6.78;2.38;;;;;;;;;;6260131;28;20045;-71
2021/05/03 10:15:54;;;;;;;4.60;2.40;;;;;;;;;;6258453;28;20045;-71
2021/05/03 10:18:56;;;;;;;3.90;1.85;;;;;;;;;;6260033;28;20045;-74
2021/05/03 10:21:58;;;;;;;2.88;1.50;;;;;;;;;;6259781;28;20067;-71
2021/05/03 10:25:04;;;;;;;4.03;1.92;;;;;;;;;;6259463;28;20083;-72
2021/05/03 10:28:05;;;;;;;2.35;1.83;;;;;;;;;;6245008;28;20176;-71
2021/05/03 10:31:07;;;;;;;3.17;1.73;;;;;;;;;;6258815;28;20476;-72
2021/05/03 10:34:48;;;;;;;4.43;2.10;;;;;;;;;;6257778;28;20048;-73
2021/05/03 10:37:50;;;;;;;4.40;2.10;;;;;;;;;;6251361;28;20053;-73
2021/05/03 10:40:52;;;;;;;6.80;2.10;;;;;;;;;;6255526;28;20053;-72
2021/05/03 10:44:10;;;;;;;3.20;1.75;;;;;;;;;;6253895;28;20500;-70
2021/05/03 10:47:33;;;;;;;3.15;1.70;;;;;;;;;;6254130;28;20072;-74
2021/05/03 10:50:42;;;;;;;3.88;2.22;;;;;;;;;;6252562;28;20096;-72
2021/05/03 10:53:45;;;;;;;3.80;1.80;;;;;;;;;;6264126;28;20049;-72
2021/05/03 10:56:46;;;;;;;3.55;2.47;;;;;;;;;;6254243;28;20059;-72
2021/05/03 10:59:51;;;;;;;3.72;2.00;;;;;;;;;;6262136;28;20397;-72
2021/05/03 11:02:53;;;;;;;3.67;2.08;;;;;;;;;;6252809;28;20480;-70
2021/05/03 11:05:54;;;;;;;4.33;1.97;;;;;;;;;;6265089;28;20064;-73
2021/05/03 11:09:29;;;;;;;4.05;2.42;;;;;;;;;;6255228;28;20060;-72
2021/05/03 11:12:32;;;;;;;4.95;2.08;;;;;;;;;;6249243;28;20033;-73
2021/05/03 11:15:33;;;;;;;3.38;2.25;;;;;;;;;;6253583;28;20052;-72
2021/05/03 11:18:40;;;;;;;3.85;2.22;;;;;;;;;;6252770;28;20170;-72
2021/05/03 11:21:43;;;;;;;4.10;1.92;;;;;;;;;;6253148;28;20047;-71
2021/05/03 11:24:51;;;;;;;3.72;2.05;;;;;;;;;;6254785;28;20846;-70
2021/05/03 11:27:57;;;;;;;4.85;2.60;;;;;;;;;;6248561;28;20044;-72
2021/05/03 11:31:00;;;;;;;4.25;2.30;;;;;;;;;;6256844;28;20063;-73
2021/05/03 11:34:07;;;;;;;5.00;2.17;;;;;;;;;;6255954;28;20124;-70
2021/05/03 11:37:12;;;;;;;5.50;2.22;;;;;;;;;;6249994;28;20400;-70
2021/05/03 11:40:26;;;;;;;5.63;2.75;;;;;;;;;;6258251;28;20127;-70
2021/05/03 11:47:04;;;;;;;4.43;1.92;;;;;;;;;;6263752;28;20132;-72
2021/05/03 11:50:07;;;;;;;4.70;2.35;;;;;;;;;;6265606;28;20401;-73
2021/05/03 11:53:08;;;;;;;4.75;2.33;;;;;;;;;;6261479;28;20503;-73
2021/05/03 11:56:21;;;;;;;4.20;2.70;;;;;;;;;;6252719;28;20053;-73
2021/05/03 11:59:22;;;;;;;3.60;2.22;;;;;;;;;;6249493;28;20455;-72
2021/05/03 12:02:25;;;;;;;3.58;2.30;;;;;;;;;;6253409;28;20057;-71
2021/05/03 12:05:27;;;;;;;4.82;2.25;;;;;;;;;;6258649;28;20463;-71
2021/05/03 12:08:28;;;;;;;3.03;1.63;;;;;;;;;;6261482;28;20041;-69
2021/05/03 12:11:29;;;;;;;5.18;2.05;;;;;;;;;;6256203;28;20044;-72
2021/05/03 12:14:45;;;;;;;4.57;2.25;;;;;;;;;;6253263;28;21776;-72
2021/05/03 12:17:46;;;;;;;2.83;2.22;;;;;;;;;;6254287;28;20215;-72
2021/05/03 12:20:49;;;;;;;3.45;2.00;;;;;;;;;;6255221;28;20064;-73
2021/05/03 12:23:50;;;;;;;3.97;2.47;;;;;;;;;;6245977;28;20088;-71
2021/05/03 12:26:53;;;;;;;4.25;2.65;;;;;;;;;;6255200;28;20466;-75
2021/05/03 12:29:54;;;;;;;5.72;2.20;;;;;;;;;;6253730;28;20372;-72
2021/05/03 12:32:55;;;;;;;5.30;2.17;;;;;;;;;;6257557;28;20114;-70
2021/05/03 12:35:58;;;;;;;4.70;2.10;;;;;;;;;;6259003;28;20041;-72
2021/05/03 12:39:08;;;;;;;3.05;1.60;;;;;;;;;;6254578;28;20060;-72
2021/05/03 12:42:14;;;;;;;3.33;1.60;;;;;;;;;;6269992;28;20108;-71
2021/05/03 12:45:24;;;;;;;5.65;1.50;;;;;;;;;;6254651;28;20052;-73
2021/05/03 12:48:33;;;;;;;3.10;1.45;;;;;;;;;;6248295;28;20071;-73
2021/05/03 12:51:42;;;;;;;3.35;2.10;;;;;;;;;;6256467;28;20057;-71
2021/05/03 12:54:51;;;;;;;5.47;2.35;;;;;;;;;;6255303;28;20113;-70
2021/05/03 12:58:01;;;;;;;2.38;1.80;;;;;;;;;;6257904;28;20044;-71
2021/05/03 13:01:16;;;;;;;3.45;1.88;;;;;;;;;;6262721;28;20056;-71
2021/05/03 13:04:47;;;;;;;2.40;1.83;;;;;;;;;;6262365;28;20037;-71
2021/05/03 13:07:59;;;;;;;4.40;2.35;;;;;;;;;;6252241;28;20045;-71
2021/05/03 13:28:07;;;;;;;4.60;1.80;;;;;;;;;;6208972;28;20054;-70
2021/05/03 13:31:08;;;;;;;2.58;1.90;;;;;;;;;;6277533;28;20187;-73
2021/05/03 13:34:11;;;;;;;2.92;1.50;;;;;;;;;;6261902;28;20049;-70
2021/05/03 13:37:13;;;;;;;3.42;1.80;;;;;;;;;;6272511;28;20047;-70
2021/05/03 13:40:15;;;;;;;4.13;2.10;;;;;;;;;;6265127;28;20045;-73
2021/05/03 13:43:17;;;;;;;5.20;2.10;;;;;;;;;;6265263;28;20126;-72
2021/05/03 13:46:18;;;;;;;4.75;2.00;;;;;;;;;;6271106;28;20491;-71
2021/05/03 13:49:20;;;;;;;2.35;1.67;;;;;;;;;;6262826;28;20071;-73
2021/05/03 13:52:21;;;;;;;6.32;2.47;;;;;;;;;;6279820;28;20631;-72
2021/05/03 13:55:23;;;;;;;3.85;2.10;;;;;;;;;;6259092;28;20053;-72
2021/05/03 13:58:24;;;;;;;4.30;2.00;;;;;;;;;;6263465;28;20056;-71
2021/05/03 14:01:26;;;;;;;4.32;1.73;;;;;;;;;;6265469;28;20056;-74
2021/05/03 14:04:27;;;;;;;4.90;1.98;;;;;;;;;;6260531;28;20148;-73
2021/05/03 14:07:28;;;;;;;4.05;2.20;;;;;;;;;;6270536;28;20714;-71
2021/05/03 14:10:30;;;;;;;3.63;2.15;;;;;;;;;;6268972;28;20071;-71
2021/05/03 14:13:31;;;;;;;3.35;1.80;;;;;;;;;;6261804;28;20043;-75
2021/05/03 14:16:33;;;;;;;3.72;1.90;;;;;;;;;;6265295;28;20104;-72
2021/05/03 14:19:37;;;;;;;4.80;1.80;;;;;;;;;;6253293;28;20174;-72
2021/05/03 14:22:39;;;;;;;3.25;1.73;;;;;;;;;;6256801;28;20369;-74
2021/05/03 14:25:41;;;;;;;2.78;1.88;;;;;;;;;;6253089;28;20049;-72
2021/05/03 14:28:45;;;;;;;2.00;1.35;;;;;;;;;;6254891;28;20441;-73
2021/05/03 14:31:49;;;;;;;3.53;1.48;;;;;;;;;;6260835;28;20139;-74
2021/05/03 14:34:52;;;;;;;3.78;1.65;;;;;;;;;;6256336;28;20548;-71
2021/05/03 14:37:54;;;;;;;4.13;1.55;;;;;;;;;;6258885;28;20048;-70
2021/05/03 14:40:56;;;;;;;3.17;1.90;;;;;;;;;;6260087;28;20060;-71
2021/05/03 14:43:58;;;;;;;7.15;1.85;;;;;;;;;;6274203;28;20044;-72
2021/05/03 14:47:01;;;;;;;1.80;1.50;;;;;;;;;;6266292;28;20139;-71
2021/05/03 14:50:08;;;;;;;4.22;1.70;;;;;;;;;;6265676;28;20492;-71
2021/05/03 14:53:31;;;;;;;4.80;1.80;;;;;;;;;;6257393;28;20055;-72
2021/05/03 14:56:33;;;;;;;2.10;1.52;;;;;;;;;;6252963;28;20367;-71
2021/05/03 14:59:35;;;;;;;4.72;1.70;;;;;;;;;;6263273;28;20455;-72
2021/05/03 15:02:36;;;;;;;3.55;1.90;;;;;;;;;;6260373;28;20053;-72
2021/05/03 15:05:39;;;;;;;5.38;2.05;;;;;;;;;;6254889;28;20045;-71
2021/05/03 15:08:41;;;;;;;4.05;1.73;;;;;;;;;;6253372;28;20061;-72
2021/05/03 15:11:44;;;;;;;5.10;1.80;;;;;;;;;;6264491;28;20385;-72
2021/05/03 15:14:58;;;;;;;4.35;2.10;;;;;;;;;;6246660;28;20491;-72
2021/05/03 15:18:15;;;;;;;3.85;2.10;;;;;;;;;;6256440;28;20613;-73
2021/05/03 15:21:30;;;;;;;3.15;1.63;;;;;;;;;;6253847;28;20127;-72
2021/05/03 15:24:32;;;;;;;2.25;1.55;;;;;;;;;;6255867;28;20060;-71
2021/05/03 15:27:37;;;;;;;4.57;1.50;;;;;;;;;;6253048;28;20453;-73
2021/05/03 15:30:55;;;;;;;2.30;1.40;;;;;;;;;;6254651;28;20118;-75
2021/05/03 15:33:56;;;;;;;2.13;1.35;;;;;;;;;;6254155;28;20133;-71
2021/05/03 15:36:57;;;;;;;3.00;1.33;;;;;;;;;;6257705;28;20049;-71
2021/05/03 15:39:58;;;;;;;4.13;1.85;;;;;;;;;;6258153;28;20056;-73
2021/05/03 15:43:01;;;;;;;2.92;1.45;;;;;;;;;;6259789;28;20488;-70
2021/05/03 15:46:04;;;;;;;2.80;1.60;;;;;;;;;;6254883;28;20104;-72
2021/05/03 15:49:05;;;;;;;4.07;1.40;;;;;;;;;;6259586;28;20045;-71
2021/05/03 15:52:06;;;;;;;3.70;1.77;;;;;;;;;;6264001;28;20515;-74
2021/05/03 15:55:09;;;;;;;3.38;2.00;;;;;;;;;;6258986;28;20057;-73
2021/05/03 15:58:13;;;;;;;3.65;1.42;;;;;;;;;;6257863;28;20122;-73
2021/05/03 16:01:14;;;;;;;4.80;1.80;;;;;;;;;;6252984;28;20050;-71
2021/05/03 16:04:15;;;;;;;2.53;1.50;;;;;;;;;;6260105;28;20073;-73
2021/05/03 16:07:16;;;;;;;5.22;1.50;;;;;;;;;;6255581;28;20453;-70
2021/05/03 16:10:18;;;;;;;2.58;1.25;;;;;;;;;;6262583;28;20072;-72
2021/05/03 16:13:20;;;;;;;4.13;1.35;;;;;;;;;;6263617;28;20048;-71
2021/05/03 16:16:23;;;;;;;2.10;1.33;;;;;;;;;;6257901;28;20042;-74
2021/05/03 16:19:24;;;;;;;;;;;;;;;;;;6256023;28;20087;-71
2021/05/03 16:22:26;;;;;;;2.40;1.23;;;;;;;;;;6255137;28;19921;-71
2021/05/03 16:25:30;;;;;;;3.03;1.52;;;;;;;;;;6252978;28;20057;-72
2021/05/03 16:28:32;;;;;;;5.18;1.50;;;;;;;;;;6255809;28;20049;-75
2021/05/03 16:31:33;;;;;;;1.92;1.40;;;;;;;;;;6256122;28;20056;-72
2021/05/03 16:34:34;;;;;;;4.00;1.55;;;;;;;;;;6255662;28;20045;-73
2021/05/03 16:37:36;;;;;;;5.88;1.45;;;;;;;;;;6256606;28;20057;-72
2021/05/03 16:40:37;;;;;;;2.03;1.20;;;;;;;;;;6257805;28;20533;-71
2021/05/03 16:43:39;;;;;;;2.50;1.20;;;;;;;;;;6259646;28;20106;-71
2021/05/03 16:46:40;;;;;;;4.70;1.40;;;;;;;;;;6256006;28;20053;-71
2021/05/03 16:49:41;;;;;;;2.20;1.20;;;;;;;;;;6260206;28;20846;-71
2021/05/03 16:52:42;;;;;;;3.50;1.50;;;;;;;;;;6258201;28;20951;-76
2021/05/03 16:55:44;;;;;;;3.05;1.48;;;;;;;;;;6252537;28;20159;-70
2021/05/03 16:58:45;;;;;;;3.60;1.50;;;;;;;;;;6255316;28;20037;-71
2021/05/03 17:01:47;;;;;;;2.40;1.30;;;;;;;;;;6257501;28;20095;-71
2021/05/03 17:04:48;;;;;;;2.38;1.38;;;;;;;;;;6256573;28;20093;-72
2021/05/03 17:07:49;;;;;;;2.25;1.10;;;;;;;;;;6255703;28;20049;-70
2021/05/03 17:10:50;;;;;;;3.67;1.45;;;;;;;;;;6264283;28;20112;-71
2021/05/03 17:13:51;;;;;;;2.78;1.15;;;;;;;;;;6250356;28;20551;-70
2021/05/03 17:16:53;;;;;;;2.55;1.40;;;;;;;;;;6258760;28;20494;-70
2021/05/03 17:19:54;;;;;;;2.97;1.30;;;;;;;;;;6258526;28;20053;-71
2021/05/03 17:22:55;;;;;;;2.35;1.25;;;;;;;;;;6260008;28;20396;-69
2021/05/03 17:25:56;;;;;;;4.90;1.48;;;;;;;;;;6258137;28;20156;-70
2021/05/03 17:29:03;;;;;;;2.15;1.20;;;;;;;;;;6256810;28;20045;-75
2021/05/03 17:32:04;;;;;;;3.65;2.00;;;;;;;;;;6252875;28;20584;-71
2021/05/03 17:35:06;;;;;;;3.30;1.50;;;;;;;;;;6251862;28;20051;-71
2021/05/03 17:38:07;;;;;;;2.80;1.60;;;;;;;;;;6253374;28;20144;-72
2021/05/03 17:41:08;;;;;;;1.75;1.38;;;;;;;;;;6255374;28;20045;-71
2021/05/03 17:44:10;;;;;;;2.35;1.33;;;;;;;;;;6256956;28;20412;-71
2021/05/03 17:47:12;;;;;;;3.92;1.38;;;;;;;;;;6269565;28;20156;-72
2021/05/03 17:50:14;;;;;;;4.05;1.40;;;;;;;;;;6259118;28;20186;-68
2021/05/03 17:53:15;;;;;;;3.35;1.40;;;;;;;;;;6265860;28;20059;-72
2021/05/03 17:56:16;;;;;;;4.35;1.48;;;;;;;;;;6257571;28;20353;-70
2021/05/03 17:59:18;;;;;;;3.40;1.70;;;;;;;;;;6257641;28;20109;-72
2021/05/03 18:02:19;;;;;;;4.47;1.67;;;;;;;;;;6256670;28;20052;-71
2021/05/03 18:05:20;;;;;;;2.58;1.55;;;;;;;;;;6255773;28;21737;-71
2021/05/03 18:08:21;;;;;;;3.05;1.67;;;;;;;;;;6257830;28;20049;-71
2021/05/03 18:11:23;;;;;;;2.65;1.45;;;;;;;;;;6251041;28;20069;-72
2021/05/03 18:14:27;;;;;;;4.07;1.92;;;;;;;;;;6252376;28;20053;-70
2021/05/03 18:17:29;;;;;;;1.98;1.25;;;;;;;;;;6254794;28;20060;-67
2021/05/03 18:20:36;;;;;;;2.65;1.20;;;;;;;;;;6249888;28;20045;-67
2021/05/03 18:23:37;;;;;;;5.57;1.63;;;;;;;;;;6254438;28;20118;-75
2021/05/03 18:26:38;;;;;;;4.32;1.75;;;;;;;;;;6256225;28;20144;-72
2021/05/03 18:29:40;;;;;;;3.50;1.48;;;;;;;;;;6253955;28;20044;-72
2021/05/03 18:32:47;;;;;;;3.70;1.60;;;;;;;;;;6248926;28;20108;-78
2021/05/03 18:35:48;;;;;;;3.67;1.67;;;;;;;;;;6256722;28;20388;-78
2021/05/03 18:38:49;;;;;;;2.33;1.50;;;;;;;;;;6255941;28;20136;-74
2021/05/03 18:41:50;;;;;;;5.07;2.00;;;;;;;;;;6259943;28;20206;-77
2021/05/03 18:44:52;;;;;;;2.20;1.50;;;;;;;;;;6269298;28;20135;-76